Time;durP1;ratioP1;P1;durP2;ratioP2;P2;SDS_P1;SDS_P2;PMS_P1;PMS_P2;Temp;Humidity;BMP_temperature;BMP_pressure;BME280_temperature;BME280_humidity;BME280_pressure;Samples;Min_cycle;Max_cycle;Signal;HPM_P1;HPM_P2
2022/12/03 00:01:00;;;;;;;1.70;1.70;;;4.30;99.90;;;;;;5018614;28;20751;-84
2022/12/03 00:03:27;;;;;;;5.70;5.27;;;4.30;99.90;;;;;;5026800;28;20219;-84
2022/12/03 00:05:53;;;;;;;3.53;2.03;;;4.20;99.90;;;;;;5027950;28;20222;-83
2022/12/03 00:08:19;;;;;;;1.20;1.20;;;4.40;99.90;;;;;;5033983;28;20197;-85
2022/12/03 00:10:44;;;;;;;5.37;2.30;;;4.40;99.90;;;;;;5028262;28;21004;-83
2022/12/03 00:13:10;;;;;;;3.90;2.17;;;4.50;99.90;;;;;;5028103;28;20222;-85
2022/12/03 00:15:36;;;;;;;2.70;2.50;;;4.50;99.90;;;;;;5019583;28;20369;-85
2022/12/03 00:18:01;;;;;;;4.20;2.57;;;4.50;99.90;;;;;;5042566;28;20263;-86
2022/12/03 00:20:27;;;;;;;1.63;1.63;;;4.60;99.90;;;;;;5002130;28;20218;-86
2022/12/03 00:22:53;;;;;;;1.60;1.00;;;4.60;99.90;;;;;;5028230;28;20595;-87
2022/12/03 00:25:19;;;;;;;2.70;1.60;;;4.60;99.90;;;;;;5027095;28;20308;-87
2022/12/03 00:27:44;;;;;;;1.70;1.60;;;4.60;99.90;;;;;;5016801;28;20268;-86
2022/12/03 00:30:11;;;;;;;2.50;1.73;;;4.70;99.90;;;;;;5026823;28;21020;-86
2022/12/03 00:32:37;;;;;;;3.10;1.60;;;4.70;99.90;;;;;;5026188;28;20223;-86
2022/12/03 00:35:02;;;;;;;1.47;1.47;;;4.70;99.90;;;;;;5027507;28;20217;-86
2022/12/03 00:37:28;;;;;;;1.43;1.43;;;4.70;99.90;;;;;;5033582;28;20202;-85
2022/12/03 00:39:54;;;;;;;2.83;1.33;;;4.70;99.90;;;;;;5027460;28;20226;-84
2022/12/03 00:42:20;;;;;;;2.43;2.27;;;4.70;99.90;;;;;;5026202;28;20234;-88
2022/12/03 00:44:45;;;;;;;2.20;1.57;;;4.70;99.90;;;;;;5024269;28;20238;-84
2022/12/03 00:47:11;;;;;;;1.07;0.97;;;4.70;99.90;;;;;;5027463;28;20567;-84
2022/12/03 00:49:37;;;;;;;1.50;1.40;;;4.80;99.90;;;;;;5043358;28;20555;-87
2022/12/03 00:52:03;;;;;;;1.57;1.47;;;4.80;99.90;;;;;;5036865;28;20321;-84
2022/12/03 00:54:29;;;;;;;3.03;1.83;;;4.90;99.90;;;;;;5026877;28;20310;-89
2022/12/03 00:56:54;;;;;;;7.10;2.03;;;4.90;99.90;;;;;;5027167;28;20218;-84
2022/12/03 00:59:20;;;;;;;2.60;1.87;;;5.00;99.90;;;;;;5025825;28;20221;-85
2022/12/03 01:01:46;;;;;;;2.23;1.77;;;5.00;99.90;;;;;;5026173;28;21295;-85
2022/12/03 01:04:11;;;;;;;1.43;1.40;;;5.00;99.90;;;;;;5025949;28;20268;-85
2022/12/03 01:06:37;;;;;;;2.47;2.30;;;5.00;99.90;;;;;;5042134;28;20219;-85
2022/12/03 01:09:03;;;;;;;2.47;1.20;;;5.10;99.90;;;;;;5026967;28;20313;-83
2022/12/03 01:11:38;;;;;;;1.43;1.37;;;5.10;99.90;;;;;;5025671;28;20227;-85
2022/12/03 01:14:15;;;;;;;2.53;1.67;;;5.10;99.90;;;;;;5026417;28;20186;-86
2022/12/03 01:16:41;;;;;;;1.73;1.53;;;5.20;99.90;;;;;;5026999;28;20195;-83
2022/12/03 01:19:09;;;;;;;2.60;1.40;;;5.10;99.90;;;;;;5026938;28;20219;-86
2022/12/03 01:21:35;;;;;;;2.93;2.17;;;5.10;99.90;;;;;;5041640;28;20222;-86
2022/12/03 01:24:02;;;;;;;1.43;1.20;;;5.10;99.90;;;;;;5018798;28;20257;-82
2022/12/03 01:26:27;;;;;;;1.20;1.20;;;5.20;99.90;;;;;;5041960;28;20222;-84
2022/12/03 01:28:53;;;;;;;5.80;2.37;;;5.20;99.90;;;;;;5025539;28;20282;-84
2022/12/03 01:34:04;;;;;;;1.83;1.73;;;5.20;99.90;;;;;;5026369;28;20230;-87
2022/12/03 01:36:30;;;;;;;2.33;2.10;;;5.20;99.90;;;;;;5025415;28;20224;-85
2022/12/03 01:38:55;;;;;;;1.53;1.53;;;5.30;99.90;;;;;;5026579;28;20218;-84
2022/12/03 01:41:23;;;;;;;3.90;3.47;;;5.30;99.90;;;;;;5025165;28;20231;-85
2022/12/03 01:43:50;;;;;;;3.47;1.60;;;5.40;99.90;;;;;;5026571;28;20230;-84
2022/12/03 01:46:19;;;;;;;2.87;2.30;;;5.40;99.90;;;;;;5041512;28;20305;-87
2022/12/03 01:48:47;;;;;;;2.83;1.60;;;5.40;99.90;;;;;;5041573;28;20222;-86
2022/12/03 01:51:14;;;;;;;2.30;2.10;;;5.40;99.90;;;;;;5026173;28;20623;-88
2022/12/03 01:53:40;;;;;;;2.37;2.03;;;5.40;99.90;;;;;;5026489;28;20215;-86
2022/12/03 01:56:07;;;;;;;3.07;1.93;;;5.40;99.90;;;;;;5026103;28;20187;-84
2022/12/03 01:58:33;;;;;;;3.33;3.13;;;5.40;99.90;;;;;;5025187;28;20191;-86
2022/12/03 02:01:05;;;;;;;3.67;2.53;;;5.40;99.90;;;;;;5041911;28;20276;-86
2022/12/03 02:03:31;;;;;;;2.67;1.27;;;5.50;99.90;;;;;;5025610;28;20762;-84
2022/12/03 02:05:56;;;;;;;1.67;1.60;;;5.50;99.90;;;;;;5017451;28;20222;-84
2022/12/03 02:08:30;;;;;;;1.67;1.57;;;5.50;99.90;;;;;;5000725;28;20233;-84
2022/12/03 02:10:59;;;;;;;2.47;1.70;;;5.50;99.90;;;;;;5040905;28;20183;-82
2022/12/03 02:13:24;;;;;;;2.20;2.03;;;5.50;99.90;;;;;;5024318;28;20222;-85
2022/12/03 02:15:50;;;;;;;2.13;1.43;;;5.60;99.90;;;;;;5024853;28;20237;-87
2022/12/03 02:18:17;;;;;;;1.07;0.93;;;5.60;99.90;;;;;;5026371;28;20218;-84
2022/12/03 02:21:03;;;;;;;0.73;0.73;;;5.60;99.90;;;;;;5041534;28;20214;-84
2022/12/03 02:23:51;;;;;;;5.80;2.60;;;5.60;99.90;;;;;;5022122;28;20333;-88
2022/12/03 02:26:17;;;;;;;1.50;1.40;;;5.60;99.90;;;;;;5025921;28;20290;-86
2022/12/03 02:28:43;;;;;;;6.27;2.47;;;5.60;99.90;;;;;;5026563;28;20274;-85
2022/12/03 02:31:09;;;;;;;2.47;2.37;;;5.60;99.90;;;;;;5000057;28;20230;-83
2022/12/03 02:33:35;;;;;;;0.97;0.87;;;5.50;99.90;;;;;;5031554;28;20234;-90
2022/12/03 02:36:01;;;;;;;4.47;3.50;;;5.50;99.90;;;;;;5026325;28;20232;-84
2022/12/03 02:38:29;;;;;;;0.63;0.63;;;5.50;99.90;;;;;;5024693;28;20219;-85
2022/12/03 02:40:59;;;;;;;3.40;3.10;;;5.50;99.90;;;;;;5028804;28;20191;-85
2022/12/03 02:43:25;;;;;;;3.23;1.80;;;5.50;99.90;;;;;;5029434;28;20593;-87
2022/12/03 02:45:53;;;;;;;1.47;1.40;;;5.50;99.90;;;;;;5029968;28;20222;-82
2022/12/03 02:48:28;;;;;;;0.53;0.53;;;5.50;99.90;;;;;;5029464;28;20218;-84
2022/12/03 02:50:58;;;;;;;3.37;1.30;;;5.50;99.90;;;;;;5028979;28;21024;-87
2022/12/03 02:53:27;;;;;;;2.93;2.73;;;5.50;99.90;;;;;;5044965;28;20226;-88
2022/12/03 02:55:54;;;;;;;2.17;2.07;;;5.40;99.90;;;;;;5030122;28;20191;-85
2022/12/03 02:58:21;;;;;;;1.67;1.57;;;5.50;99.90;;;;;;5028626;28;20616;-86
2022/12/03 03:00:48;;;;;;;1.20;1.10;;;5.50;99.90;;;;;;5035669;28;20219;-85
2022/12/03 03:03:16;;;;;;;3.80;2.60;;;5.50;99.90;;;;;;5029255;28;20234;-83
2022/12/03 03:05:43;;;;;;;2.23;2.03;;;5.50;99.90;;;;;;5027690;28;20254;-85
2022/12/03 03:08:10;;;;;;;2.30;1.50;;;5.50;99.90;;;;;;5028766;28;20209;-84
2022/12/03 03:10:39;;;;;;;3.07;1.83;;;5.50;99.90;;;;;;5028498;28;20203;-87
2022/12/03 03:13:11;;;;;;;1.83;0.90;;;5.50;99.90;;;;;;5028049;28;20234;-87
2022/12/03 03:15:39;;;;;;;2.23;1.97;;;5.50;99.90;;;;;;5028829;28;20230;-86
2022/12/03 03:18:07;;;;;;;2.10;2.00;;;5.60;99.90;;;;;;5029306;28;20214;-82
2022/12/03 03:20:33;;;;;;;1.83;1.33;;;5.60;99.90;;;;;;5028876;28;20570;-86
2022/12/03 03:23:16;;;;;;;3.53;2.30;;;5.60;99.90;;;;;;5043909;28;20186;-88
2022/12/03 03:25:57;;;;;;;1.07;1.07;;;5.60;99.90;;;;;;5027538;28;20305;-85
2022/12/03 03:28:24;;;;;;;3.00;2.53;;;5.60;99.90;;;;;;5026950;28;20237;-84
2022/12/03 03:30:51;;;;;;;2.83;2.63;;;5.50;99.90;;;;;;5034516;28;20219;-85
2022/12/03 03:33:17;;;;;;;4.13;2.43;;;5.50;99.90;;;;;;5019497;28;20227;-88
2022/12/03 03:35:44;;;;;;;2.27;2.07;;;5.50;99.90;;;;;;5026904;28;20259;-84
2022/12/03 03:38:10;;;;;;;1.57;1.53;;;5.50;99.90;;;;;;5028391;28;21164;-85
2022/12/03 03:40:37;;;;;;;1.10;1.10;;;5.50;99.90;;;;;;5027784;28;20682;-86
2022/12/03 03:43:04;;;;;;;2.70;2.50;;;5.40;99.90;;;;;;5028375;28;20637;-84
2022/12/03 03:45:29;;;;;;;1.37;1.27;;;5.40;99.90;;;;;;5028550;28;20218;-85
2022/12/03 03:47:56;;;;;;;2.80;2.00;;;5.40;99.90;;;;;;5028408;28;20226;-88
2022/12/03 03:50:22;;;;;;;4.53;2.10;;;5.40;99.90;;;;;;5028471;28;20218;-85
2022/12/03 03:52:48;;;;;;;2.57;2.30;;;5.30;99.90;;;;;;5028003;28;20267;-86
2022/12/03 03:55:14;;;;;;;2.57;2.37;;;5.30;99.90;;;;;;5036234;28;20222;-84
2022/12/03 03:57:40;;;;;;;2.60;2.43;;;5.30;99.90;;;;;;5043338;28;20226;-86
2022/12/03 04:00:07;;;;;;;6.80;1.80;;;5.30;99.90;;;;;;5028796;28;21015;-85
2022/12/03 04:02:33;;;;;;;1.63;1.57;;;5.30;99.90;;;;;;5027936;28;20253;-89
2022/12/03 04:05:00;;;;;;;1.97;1.77;;;5.30;99.90;;;;;;5027668;28;20191;-83
2022/12/03 04:07:25;;;;;;;2.97;2.60;;;5.30;99.90;;;;;;5035469;28;20544;-87
2022/12/03 04:09:51;;;;;;;1.30;1.23;;;5.20;99.90;;;;;;5027178;28;20221;-88
2022/12/03 04:15:01;;;;;;;2.07;1.90;;;5.30;99.90;;;;;;5040986;28;20222;-85
2022/12/03 04:17:26;;;;;;;2.27;2.17;;;5.30;99.90;;;;;;5027137;28;20215;-86
2022/12/03 04:19:52;;;;;;;1.73;1.33;;;5.30;99.90;;;;;;5028750;28;20696;-83
2022/12/03 04:30:31;;;;;;;4.60;2.33;;;5.30;99.90;;;;;;5041023;28;20211;-84
2022/12/03 04:35:41;;;;;;;2.77;2.57;;;5.30;99.90;;;;;;5028068;28;20230;-87
2022/12/03 04:38:07;;;;;;;2.83;1.80;;;5.30;99.90;;;;;;5027463;28;21043;-84
2022/12/03 04:43:17;;;;;;;1.73;1.63;;;5.20;99.90;;;;;;5022914;28;20251;-83
2022/12/03 04:45:43;;;;;;;3.03;2.37;;;5.20;99.90;;;;;;5026052;28;20476;-83
2022/12/03 04:48:08;;;;;;;3.97;1.23;;;5.20;99.90;;;;;;5027205;28;20629;-83
2022/12/03 04:50:34;;;;;;;2.57;1.67;;;5.20;99.90;;;;;;5010384;28;20218;-86
2022/12/03 04:53:00;;;;;;;2.73;2.53;;;5.20;99.90;;;;;;5025947;28;20211;-83
2022/12/03 04:55:25;;;;;;;1.10;1.10;;;5.20;99.90;;;;;;5025404;28;20276;-87
2022/12/03 04:57:52;;;;;;;1.50;1.43;;;5.20;99.90;;;;;;5024525;28;20288;-87
2022/12/03 05:00:17;;;;;;;3.03;2.60;;;5.10;99.90;;;;;;5040449;28;20280;-82
2022/12/03 05:02:43;;;;;;;1.37;1.27;;;5.10;99.90;;;;;;5016335;28;20226;-89
2022/12/03 05:05:09;;;;;;;1.47;0.63;;;5.10;99.90;;;;;;5007117;28;20195;-85
2022/12/03 05:07:36;;;;;;;2.00;1.63;;;5.10;99.90;;;;;;5025039;28;20233;-84
2022/12/03 05:10:02;;;;;;;8.60;3.33;;;5.10;99.90;;;;;;5024847;28;20223;-85
2022/12/03 05:12:28;;;;;;;1.93;1.73;;;5.10;99.90;;;;;;5024440;28;20265;-86
2022/12/03 05:14:54;;;;;;;4.10;3.83;;;5.10;99.90;;;;;;5024984;28;20219;-88
2022/12/03 05:17:19;;;;;;;2.87;2.67;;;5.10;99.90;;;;;;5026412;28;20193;-85
2022/12/03 05:22:29;;;;;;;2.47;1.70;;;5.10;99.90;;;;;;5032262;28;20229;-82
2022/12/03 05:24:55;;;;;;;2.00;1.90;;;5.10;99.90;;;;;;5025734;28;20218;-85
2022/12/03 05:27:21;;;;;;;2.30;1.33;;;5.10;99.90;;;;;;5018574;28;20660;-85
2022/12/03 05:29:47;;;;;;;1.70;1.60;;;5.10;99.90;;;;;;5025234;28;20226;-85
2022/12/03 05:32:12;;;;;;;2.30;2.10;;;5.10;99.90;;;;;;5026531;28;20648;-83
2022/12/03 05:34:38;;;;;;;1.70;1.60;;;5.10;99.90;;;;;;5027313;28;20195;-85
2022/12/03 05:37:04;;;;;;;1.87;1.77;;;5.10;99.90;;;;;;5025463;28;20533;-85
2022/12/03 05:39:30;;;;;;;3.30;2.90;;;5.10;99.90;;;;;;5017011;28;20317;-84
2022/12/03 05:44:40;;;;;;;3.60;3.33;;;5.10;99.90;;;;;;5025938;28;20238;-87
2022/12/03 05:47:05;;;;;;;0.40;0.40;;;5.10;99.90;;;;;;5026740;28;20577;-83
2022/12/03 05:49:31;;;;;;;2.73;2.43;;;5.10;99.90;;;;;;5025023;28;20187;-84
2022/12/03 05:51:57;;;;;;;3.10;2.83;;;5.10;99.90;;;;;;5024870;28;20223;-85
2022/12/03 05:54:22;;;;;;;0.83;0.83;;;5.00;99.90;;;;;;5026525;28;20360;-85
2022/12/03 05:56:48;;;;;;;4.87;3.83;;;5.00;99.90;;;;;;5016838;28;20219;-87
2022/12/03 05:59:14;;;;;;;2.43;1.80;;;5.10;99.90;;;;;;5026669;28;20222;-84
2022/12/03 06:01:40;;;;;;;5.23;2.10;;;5.10;99.90;;;;;;5009872;28;20543;-85
2022/12/03 06:04:05;;;;;;;3.60;1.80;;;5.10;99.90;;;;;;5041839;28;20276;-86
2022/12/03 06:06:31;;;;;;;2.37;0.97;;;5.10;99.90;;;;;;5033592;28;20226;-85
2022/12/03 06:08:57;;;;;;;6.33;1.97;;;5.10;99.90;;;;;;5025346;28;20218;-82
2022/12/03 06:11:22;;;;;;;6.23;2.40;;;5.10;99.90;;;;;;5030956;28;20242;-82
2022/12/03 06:13:48;;;;;;;4.80;3.03;;;5.10;99.90;;;;;;5026801;28;20563;-89
2022/12/03 06:16:14;;;;;;;1.70;1.60;;;5.00;99.90;;;;;;5036876;28;20225;-83
2022/12/03 06:18:39;;;;;;;1.73;1.63;;;5.00;99.90;;;;;;5029941;28;20218;-84
2022/12/03 06:21:05;;;;;;;4.40;2.07;;;5.00;99.90;;;;;;5030526;28;20241;-88
2022/12/03 06:23:31;;;;;;;2.97;2.23;;;5.10;99.90;;;;;;5028860;28;20225;-83
2022/12/03 06:25:56;;;;;;;2.87;2.07;;;5.10;99.90;;;;;;5012654;28;20198;-87
2022/12/03 06:28:22;;;;;;;2.53;1.03;;;5.10;99.90;;;;;;5030187;28;20692;-84
2022/12/03 06:30:48;;;;;;;2.97;2.70;;;5.00;99.90;;;;;;5030036;28;20229;-88
2022/12/03 06:33:14;;;;;;;3.57;2.63;;;5.00;99.90;;;;;;5002440;28;20360;-84
2022/12/03 06:35:39;;;;;;;0.90;0.90;;;5.00;99.90;;;;;;5020707;28;20249;-83
2022/12/03 06:38:05;;;;;;;2.57;1.40;;;4.90;99.90;;;;;;5035372;28;20194;-86
2022/12/03 06:40:31;;;;;;;1.97;1.97;;;4.90;99.90;;;;;;5028610;28;20191;-84
2022/12/03 06:42:56;;;;;;;7.20;2.33;;;4.90;99.90;;;;;;5020438;28;20225;-87
2022/12/03 06:45:22;;;;;;;1.43;1.33;;;4.90;99.90;;;;;;5035143;28;20689;-83
2022/12/03 06:47:48;;;;;;;2.13;2.00;;;4.90;99.90;;;;;;5020792;28;20229;-82
2022/12/03 06:50:14;;;;;;;3.07;2.77;;;4.90;99.90;;;;;;5029375;28;20309;-81
2022/12/03 06:52:39;;;;;;;2.57;2.10;;;4.90;99.90;;;;;;5046644;28;20226;-88
2022/12/03 06:55:06;;;;;;;1.80;1.70;;;4.90;99.90;;;;;;5046741;28;20257;-85
2022/12/03 06:57:32;;;;;;;1.70;1.57;;;4.90;99.90;;;;;;5029209;28;20229;-84
2022/12/03 06:59:58;;;;;;;12.83;1.87;;;4.90;99.90;;;;;;5021783;28;20225;-88
2022/12/03 07:02:23;;;;;;;1.57;1.57;;;4.90;99.90;;;;;;5032037;28;20223;-84
2022/12/03 07:04:49;;;;;;;1.77;1.40;;;4.90;99.90;;;;;;5032865;28;20688;-87
2022/12/03 07:07:15;;;;;;;2.37;1.10;;;4.90;99.90;;;;;;5031449;28;20249;-88
2022/12/03 07:09:40;;;;;;;2.10;2.00;;;5.00;99.90;;;;;;5031289;28;20634;-84
2022/12/03 07:12:06;;;;;;;1.37;1.30;;;5.00;99.90;;;;;;5048398;28;20226;-86
2022/12/03 07:14:32;;;;;;;2.47;2.27;;;4.90;99.90;;;;;;5031191;28;20261;-85
2022/12/03 07:16:57;;;;;;;2.90;2.70;;;4.90;99.90;;;;;;5023031;28;20317;-88
2022/12/03 07:19:23;;;;;;;3.90;3.07;;;4.90;99.90;;;;;;5023871;28;20230;-88
2022/12/03 07:21:49;;;;;;;2.83;1.90;;;4.90;99.90;;;;;;5021014;28;20222;-87
2022/12/03 07:24:15;;;;;;;4.50;1.83;;;4.80;99.90;;;;;;5032661;28;20222;-91
2022/12/03 07:26:40;;;;;;;1.27;1.23;;;4.80;99.90;;;;;;5031622;28;20286;-88
2022/12/03 07:29:06;;;;;;;1.07;0.93;;;4.80;99.90;;;;;;5037664;28;20604;-87
2022/12/03 07:31:32;;;;;;;2.07;1.97;;;4.80;99.90;;;;;;5042163;28;20301;-88
2022/12/03 07:33:57;;;;;;;2.53;2.43;;;4.80;99.90;;;;;;5033468;28;20227;-91
2022/12/03 07:36:23;;;;;;;4.90;2.77;;;4.80;99.90;;;;;;5030185;28;20703;-86
2022/12/03 07:38:49;;;;;;;22.63;2.80;;;4.80;99.90;;;;;;5030122;28;21012;-91
2022/12/03 07:41:15;;;;;;;1.07;1.03;;;4.80;99.90;;;;;;5028783;28;20198;-90
2022/12/03 07:43:40;;;;;;;2.20;1.00;;;4.80;99.90;;;;;;5027572;28;20285;-93
2022/12/03 07:46:07;;;;;;;2.43;2.33;;;4.80;99.90;;;;;;5022615;28;20279;-89
2022/12/03 07:48:33;;;;;;;1.90;1.80;;;4.80;99.90;;;;;;5029472;28;20337;-90
2022/12/03 07:50:58;;;;;;;1.93;1.83;;;4.80;99.90;;;;;;5035611;28;20309;-87
2022/12/03 07:53:24;;;;;;;3.30;3.00;;;4.80;99.90;;;;;;5030803;28;20233;-89
2022/12/03 07:55:50;;;;;;;1.83;1.57;;;4.80;99.90;;;;;;5030082;28;20195;-89
2022/12/03 07:58:15;;;;;;;1.10;1.10;;;4.80;99.90;;;;;;5012076;28;20915;-88
2022/12/03 08:00:41;;;;;;;1.17;1.10;;;4.70;99.90;;;;;;5028917;28;20242;-88
2022/12/03 08:03:07;;;;;;;3.23;2.83;;;4.70;99.90;;;;;;5045484;28;20223;-89
2022/12/03 08:05:32;;;;;;;5.73;2.20;;;4.70;99.90;;;;;;5028111;28;20226;-86
2022/12/03 08:07:58;;;;;;;1.13;1.07;;;4.70;99.90;;;;;;5028685;28;20198;-88
2022/12/03 08:10:25;;;;;;;1.60;1.50;;;4.70;99.90;;;;;;5027836;28;20211;-87
2022/12/03 08:12:52;;;;;;;1.13;0.83;;;4.70;99.90;;;;;;5028622;28;20269;-88
2022/12/03 08:15:22;;;;;;;1.50;1.40;;;4.70;99.90;;;;;;5022163;28;20207;-87
2022/12/03 08:17:54;;;;;;;1.27;1.17;;;4.70;99.90;;;;;;5027077;28;20215;-88
2022/12/03 08:20:23;;;;;;;1.00;0.87;;;4.70;99.90;;;;;;5027937;28;20240;-90
2022/12/03 08:22:51;;;;;;;1.60;1.50;;;4.70;99.90;;;;;;5029087;28;20187;-89
2022/12/03 08:25:27;;;;;;;1.40;0.90;;;4.60;99.90;;;;;;5027818;28;20218;-87
2022/12/03 08:28:01;;;;;;;2.00;1.30;;;4.60;99.90;;;;;;5030409;28;20778;-91
2022/12/03 08:30:28;;;;;;;1.03;0.83;;;4.60;99.90;;;;;;5030009;28;20214;-90
2022/12/03 08:32:58;;;;;;;0.73;0.73;;;4.60;99.90;;;;;;5031217;28;20244;-87
2022/12/03 08:35:26;;;;;;;1.30;1.17;;;4.60;99.90;;;;;;5033017;28;20656;-86
2022/12/03 08:38:08;;;;;;;2.37;1.83;;;4.60;99.90;;;;;;5024440;28;20652;-87
2022/12/03 08:40:40;;;;;;;1.13;1.13;;;4.60;99.90;;;;;;5000508;28;20215;-87
2022/12/03 08:43:21;;;;;;;3.10;2.83;;;4.60;99.90;;;;;;5010293;28;20246;-88
2022/12/03 08:45:48;;;;;;;0.90;0.90;;;4.50;99.90;;;;;;5011903;28;20239;-88
2022/12/03 08:48:28;;;;;;;1.97;1.80;;;4.60;99.90;;;;;;5025538;28;20223;-90
2022/12/03 08:51:14;;;;;;;4.77;1.50;;;4.50;99.90;;;;;;5009809;28;20225;-87
2022/12/03 08:53:52;;;;;;;1.33;1.33;;;4.50;99.90;;;;;;5009460;28;20238;-87
2022/12/03 08:56:24;;;;;;;1.07;0.90;;;4.50;99.90;;;;;;5005025;28;20281;-88
2022/12/03 08:58:57;;;;;;;0.97;0.93;;;4.50;99.90;;;;;;5004937;28;20205;-86
2022/12/03 09:01:30;;;;;;;6.27;2.60;;;4.50;99.90;;;;;;5003836;28;20227;-90
2022/12/03 09:04:04;;;;;;;0.93;0.93;;;4.50;99.90;;;;;;5004070;28;20223;-91
2022/12/03 09:06:29;;;;;;;3.00;2.47;;;4.50;99.90;;;;;;5037356;28;20703;-86
2022/12/03 09:08:55;;;;;;;0.73;0.73;;;4.50;99.90;;;;;;5008058;28;20239;-90
2022/12/03 09:11:21;;;;;;;4.67;1.20;;;4.40;99.90;;;;;;5011800;28;20400;-85
2022/12/03 09:13:47;;;;;;;1.60;1.50;;;4.40;99.90;;;;;;5013540;28;20188;-93
2022/12/03 09:16:12;;;;;;;1.87;1.77;;;4.40;99.90;;;;;;5004045;28;20226;-89
2022/12/03 09:18:38;;;;;;;2.33;1.40;;;4.40;99.90;;;;;;4983364;28;20223;-91
2022/12/03 09:21:04;;;;;;;4.13;1.50;;;4.40;99.90;;;;;;5000840;28;20219;-87
2022/12/03 09:23:30;;;;;;;3.30;2.73;;;4.40;99.90;;;;;;5001369;28;20720;-90
2022/12/03 09:25:55;;;;;;;3.23;2.93;;;4.40;99.90;;;;;;5001333;28;20195;-87
2022/12/03 09:28:21;;;;;;;0.50;0.50;;;4.40;99.90;;;;;;5001169;28;20285;-91
2022/12/03 09:30:47;;;;;;;2.00;1.90;;;4.40;99.90;;;;;;5034712;28;20719;-87
2022/12/03 09:33:13;;;;;;;2.10;1.97;;;4.40;99.90;;;;;;5000276;28;21039;-88
2022/12/03 09:35:38;;;;;;;2.73;2.63;;;4.30;99.90;;;;;;5009391;28;20215;-84
2022/12/03 09:38:04;;;;;;;3.07;2.87;;;4.30;99.90;;;;;;5008192;28;21087;-89
2022/12/03 09:40:30;;;;;;;3.83;3.10;;;4.30;99.90;;;;;;5010306;28;20199;-86
2022/12/03 09:42:58;;;;;;;5.53;2.47;;;4.30;99.90;;;;;;5010027;28;20282;-89
2022/12/03 09:45:24;;;;;;;0.87;0.87;;;4.30;99.90;;;;;;4999214;28;20234;-88
2022/12/03 09:47:50;;;;;;;4.57;2.70;;;4.20;99.90;;;;;;5016668;28;20246;-86
2022/12/03 09:50:21;;;;;;;1.30;1.20;;;4.20;99.90;;;;;;5001828;28;20591;-91
2022/12/03 09:52:48;;;;;;;2.07;1.97;;;4.20;99.90;;;;;;5002935;28;20211;-91
2022/12/03 09:55:21;;;;;;;1.80;1.67;;;4.20;99.90;;;;;;5003051;28;20274;-87
2022/12/03 09:57:47;;;;;;;1.33;1.27;;;4.20;99.90;;;;;;5003390;28;20220;-89
2022/12/03 10:00:19;;;;;;;3.47;1.03;;;4.10;99.90;;;;;;5003322;28;20229;-91
2022/12/03 10:02:46;;;;;;;1.50;1.47;;;4.20;99.90;;;;;;5003793;28;20229;-87
2022/12/03 10:05:12;;;;;;;6.70;3.77;;;4.10;99.90;;;;;;5006472;28;20206;-87
2022/12/03 10:07:39;;;;;;;1.90;1.80;;;4.10;99.90;;;;;;5004282;28;20220;-88
2022/12/03 10:10:07;;;;;;;2.67;2.57;;;4.10;99.90;;;;;;4994718;28;20306;-88
2022/12/03 10:12:33;;;;;;;1.97;1.87;;;4.10;99.90;;;;;;5007063;28;20566;-86
2022/12/03 10:14:59;;;;;;;0.53;0.47;;;4.10;99.90;;;;;;4997449;28;20218;-85
2022/12/03 10:17:32;;;;;;;0.97;0.63;;;4.10;99.90;;;;;;5004418;28;20215;-86
2022/12/03 10:19:57;;;;;;;3.47;1.97;;;4.10;99.90;;;;;;5004223;28;20187;-90
2022/12/03 10:22:23;;;;;;;5.00;2.77;;;4.10;99.90;;;;;;4993982;28;21083;-88
2022/12/03 10:25:21;;;;;;;1.20;1.17;;;4.10;99.90;;;;;;5002007;28;20234;-88
2022/12/03 10:28:02;;;;;;;6.03;2.27;;;4.10;99.90;;;;;;5002869;28;20246;-85
2022/12/03 10:30:28;;;;;;;5.83;1.77;;;4.00;99.90;;;;;;5003697;28;20215;-88
2022/12/03 10:32:56;;;;;;;3.30;2.00;;;4.00;99.90;;;;;;4986298;28;20293;-91
2022/12/03 10:35:39;;;;;;;4.17;2.90;;;4.00;99.90;;;;;;5000688;28;20318;-89
2022/12/03 10:38:23;;;;;;;3.87;2.00;;;4.10;99.90;;;;;;5002235;28;20750;-88
2022/12/03 10:40:49;;;;;;;7.27;3.80;;;4.10;99.90;;;;;;5003710;28;20199;-86
2022/12/03 10:43:18;;;;;;;3.43;2.90;;;4.10;99.90;;;;;;5025767;28;20225;-85
2022/12/03 10:45:46;;;;;;;2.63;2.40;;;4.10;99.90;;;;;;5016083;28;20246;-86
2022/12/03 10:48:13;;;;;;;3.07;2.77;;;4.10;99.90;;;;;;4995551;28;20278;-84
2022/12/03 10:50:55;;;;;;;3.57;1.57;;;4.10;99.90;;;;;;5012738;28;20215;-83
2022/12/03 10:53:30;;;;;;;3.43;3.03;;;4.10;99.90;;;;;;5009470;28;20202;-86
2022/12/03 10:55:59;;;;;;;2.00;1.97;;;4.10;99.90;;;;;;5038801;28;20269;-87
2022/12/03 10:58:34;;;;;;;5.03;3.97;;;4.20;99.90;;;;;;5015140;28;20282;-85
2022/12/03 11:01:04;;;;;;;1.33;1.33;;;4.20;99.90;;;;;;5040744;28;20300;-87
2022/12/03 11:03:34;;;;;;;4.97;3.37;;;4.20;99.90;;;;;;5026813;28;20207;-90
2022/12/03 11:06:01;;;;;;;4.30;2.37;;;4.20;99.90;;;;;;5015353;28;20726;-84
2022/12/03 11:08:34;;;;;;;9.43;3.20;;;4.20;99.90;;;;;;5009425;28;20229;-86
2022/12/03 11:11:07;;;;;;;2.37;2.17;;;4.30;99.90;;;;;;5011850;28;20191;-89
2022/12/03 11:13:32;;;;;;;2.03;1.87;;;4.30;99.90;;;;;;5043007;28;20223;-84
2022/12/03 11:16:00;;;;;;;1.80;1.43;;;4.30;99.90;;;;;;5011792;28;20332;-84
2022/12/03 11:18:35;;;;;;;3.60;3.40;;;4.20;99.90;;;;;;5011265;28;20234;-86
2022/12/03 11:21:04;;;;;;;1.33;1.23;;;4.30;99.90;;;;;;5011704;28;20613;-89
2022/12/03 11:23:45;;;;;;;2.77;2.03;;;4.20;99.90;;;;;;5021295;28;20257;-85
2022/12/03 11:26:12;;;;;;;3.23;2.90;;;4.20;99.90;;;;;;5018913;28;21106;-86
2022/12/03 11:28:53;;;;;;;2.63;1.40;;;4.20;99.90;;;;;;5013866;28;20233;-84
2022/12/03 11:31:36;;;;;;;3.90;1.97;;;4.30;99.90;;;;;;5011825;28;20239;-89
2022/12/03 11:34:17;;;;;;;2.43;2.23;;;4.20;99.90;;;;;;5012617;28;20776;-87
2022/12/03 11:37:08;;;;;;;2.50;2.40;;;4.30;99.90;;;;;;5023091;28;20711;-87
2022/12/03 11:39:51;;;;;;;2.07;1.93;;;4.20;99.90;;;;;;5013167;28;20223;-85
2022/12/03 11:42:26;;;;;;;3.03;2.77;;;4.30;99.90;;;;;;5011825;28;20215;-85
2022/12/03 11:45:09;;;;;;;1.50;1.27;;;4.30;99.90;;;;;;5013915;28;20253;-84
2022/12/03 11:48:03;;;;;;;4.00;3.03;;;4.30;99.90;;;;;;5012690;28;20234;-87
2022/12/03 11:50:33;;;;;;;2.47;1.57;;;4.20;99.90;;;;;;5009856;28;20633;-86
2022/12/03 11:53:07;;;;;;;2.10;1.87;;;4.20;99.90;;;;;;5015893;28;20658;-87
2022/12/03 11:55:37;;;;;;;1.07;1.07;;;4.20;99.90;;;;;;5010226;28;20302;-87
2022/12/03 11:58:14;;;;;;;1.67;1.57;;;4.20;99.90;;;;;;5014596;28;20222;-87
2022/12/03 12:00:51;;;;;;;2.43;1.80;;;4.10;99.90;;;;;;5014363;28;20227;-87
2022/12/03 12:03:47;;;;;;;2.77;1.87;;;4.10;99.90;;;;;;5013420;28;20668;-86
2022/12/03 12:06:16;;;;;;;1.77;1.67;;;4.10;99.90;;;;;;5019182;28;20207;-84
2022/12/03 12:08:50;;;;;;;5.70;5.20;;;4.10;99.90;;;;;;5013795;28;20261;-86
2022/12/03 12:11:19;;;;;;;1.83;1.73;;;4.10;99.90;;;;;;5047017;28;20543;-86
2022/12/03 12:13:54;;;;;;;2.97;1.53;;;4.10;99.90;;;;;;5013592;28;20286;-85
2022/12/03 12:16:49;;;;;;;2.47;1.80;;;4.10;99.90;;;;;;5013439;28;20277;-85
2022/12/03 12:19:37;;;;;;;5.20;2.33;;;4.00;99.90;;;;;;5012026;28;20269;-87
2022/12/03 12:22:24;;;;;;;3.70;2.07;;;4.00;99.90;;;;;;5013643;28;20696;-89
2022/12/03 12:25:04;;;;;;;3.23;1.90;;;4.10;99.90;;;;;;5013391;28;20223;-88
2022/12/03 12:27:36;;;;;;;2.37;2.03;;;4.10;99.90;;;;;;5012957;28;20223;-86
2022/12/03 12:30:22;;;;;;;2.33;2.23;;;4.00;99.90;;;;;;5013553;28;20283;-84
2022/12/03 12:33:00;;;;;;;3.93;3.07;;;4.00;99.90;;;;;;5043679;28;21073;-88
2022/12/03 12:35:28;;;;;;;1.73;1.57;;;4.00;99.90;;;;;;5041806;28;20219;-89
2022/12/03 12:38:00;;;;;;;2.90;2.70;;;4.00;99.90;;;;;;5017913;28;20230;-86
2022/12/03 12:40:31;;;;;;;1.63;1.53;;;4.00;99.90;;;;;;5008064;28;20227;-87
2022/12/03 12:43:09;;;;;;;1.43;1.27;;;4.00;99.90;;;;;;5009475;28;20219;-87
2022/12/03 12:45:38;;;;;;;5.27;4.50;;;4.00;99.90;;;;;;5041624;28;20278;-88
2022/12/03 12:48:28;;;;;;;5.90;2.17;;;4.00;99.90;;;;;;5024993;28;20696;-89
2022/12/03 12:50:57;;;;;;;2.87;2.77;;;4.00;99.90;;;;;;5008117;28;20219;-90
2022/12/03 12:53:35;;;;;;;3.23;1.60;;;4.00;99.90;;;;;;5009271;28;20285;-90
2022/12/03 12:56:25;;;;;;;3.57;2.63;;;4.00;99.90;;;;;;5009614;28;20212;-87
2022/12/03 12:58:52;;;;;;;5.10;3.47;;;4.00;99.90;;;;;;5009087;28;20215;-93
2022/12/03 13:01:26;;;;;;;3.60;3.30;;;3.90;99.90;;;;;;5037195;28;20616;-93
2022/12/03 13:03:52;;;;;;;3.50;1.70;;;3.90;99.90;;;;;;5029226;28;20279;-92
2022/12/03 13:06:29;;;;;;;3.33;2.93;;;3.90;99.90;;;;;;5040390;28;20219;-91
2022/12/03 13:08:55;;;;;;;2.83;1.73;;;3.90;99.90;;;;;;5029929;28;20724;-90
2022/12/03 13:11:24;;;;;;;1.90;1.80;;;3.90;99.90;;;;;;5027760;28;20186;-90
2022/12/03 13:13:51;;;;;;;2.80;2.60;;;3.80;99.90;;;;;;5028327;28;20245;-90
2022/12/03 13:16:30;;;;;;;7.60;3.33;;;3.80;99.90;;;;;;5029569;28;20317;-91
2022/12/03 13:18:57;;;;;;;3.40;3.10;;;3.80;99.90;;;;;;5032888;28;20214;-93
2022/12/03 13:21:41;;;;;;;4.77;2.90;;;3.80;99.90;;;;;;5044210;28;20249;-91
2022/12/03 13:24:29;;;;;;;4.83;2.57;;;3.80;99.90;;;;;;5026702;28;20240;-89
2022/12/03 13:26:55;;;;;;;1.80;1.47;;;3.80;99.90;;;;;;5026632;28;20704;-90
2022/12/03 13:29:22;;;;;;;2.67;2.57;;;3.70;99.90;;;;;;5025770;28;20213;-90
2022/12/03 13:31:56;;;;;;;6.30;3.93;;;3.70;99.90;;;;;;5026218;28;20210;-88